West Caldwell, NJ

1:54 PM EDT on September 30, 2014 (GMT -0400)
W2IRT | Change Station
CLOSE
Current Station
Personal Weather Station
Location: West Caldwell, NJ
Elevation: 261 ft
Nearby Weather Stations

Elev 261 ft 40.86 °N, 74.28 °W | Updated 18 seconds ago

Overcast
Overcast
70.6 °F
Feels Like 74 °F
N
1.0
Wind Variable Wind from East
Gusts 5.0 mph

Today
High -- | Low -- °F
--% Chance of Precip.
Yesterday
High -- | Low -- °F
Precip. -- in
6:52 AM 6:40 PM
Waxing Crescent, 38% visible
Pressure 29.97 in
Visibility 10.0 miles
Clouds Overcast 7000 ft
Heat Index 74 °F
Dew Point 61 °F
Humidity 70%
Rainfall 0.00 in
Snow Depth Not available.
UV 2 out of 12
Pollen 2.30 out of 12
Air Quality Not available.
Flu Activity Not available.
METAR KCDW 301653Z AUTO 11007KT 10SM OVC070 20/15 A2996 RMK AO2 SLP149 T02000150 TSNO

More Conditions Fewer Conditions

Pressure 29.97 in
Visibility 10.0 miles
Clouds Overcast 7000 ft
Heat Index 74 °F
Dew Point 61 °F
Humidity 70%
Rainfall 0.00 in
Snow Depth Not available.
UV 2 out of 12
Pollen 2.30 out of 12
Air Quality Not available.
Flu Activity Not available.
METAR KCDW 301653Z AUTO 11007KT 10SM OVC070 20/15 A2996 RMK AO2 SLP149 T02000150 TSNO

More Conditions Fewer Conditions

10-Day Weather Forecast

Almanac

Astronomy

Sep. 30, 2014 Rise Set
Actual Time 6:52 AM EDT 6:40 PM EDT
Civil Twilight 6:25 AM EDT 7:08 PM EDT
Nautical Twilight 5:53 AM EDT 7:39 PM EDT
Astronomical Twilight 5:21 AM EDT 8:12 PM EDT
Moon 1:00 PM EDT 11:06 PM EDT
Length of Visible Light 12h 42m
Length of Day
11h 48m
Tomorrow will be 2m 41s shorter.
Waxing Crescent, 38% of the Moon is Illuminated
Today
Waxing Crescent
Oct 1
First Quarter
Oct 8
Full
Oct 15
Last Quarter
Oct 23
New

Today's Extremes

State Highs State Lows

Community

WunderPhotos

Upload Photos

1,757,693 photos uploaded!

Nearby

Snow Depth

Station Depth Elevation
No new snow has been reported.

Earthquake Activity

City Distance Mag. Time & Date
No recent earthquake activity has been reported nearby.
Minimum magnitude displayed is 2.5.

Coastal Water Temperatures

Place Temperature
Sandy Hook, NJ 68.0 °F
The Battery, NY 69.1 °F
Bergen Point West Reach, NJ 69.1 °F

Nearby Weather Stations